createdAt,value
2023-01-21T00:01:35.992Z,2.80
2023-01-21T00:04:02.042Z,2.80
2023-01-21T00:06:28.138Z,2.88
2023-01-21T00:08:58.852Z,2.50
2023-01-21T00:11:24.944Z,2.50
2023-01-21T00:13:51.002Z,3.00
2023-01-21T00:16:17.076Z,2.65
2023-01-21T00:18:47.470Z,2.50
2023-01-21T00:21:13.859Z,2.90
2023-01-21T00:23:45.426Z,2.75
2023-01-21T00:26:16.802Z,2.70
2023-01-21T00:28:43.576Z,2.90
2023-01-21T00:31:13.488Z,2.63
2023-01-21T00:33:39.649Z,3.10
2023-01-21T00:36:18.073Z,2.80
2023-01-21T00:38:48.272Z,2.70
2023-01-21T00:41:15.008Z,2.70
2023-01-21T00:43:43.530Z,2.78
2023-01-21T00:46:11.150Z,2.78
2023-01-21T00:48:37.316Z,2.80
2023-01-21T00:51:03.561Z,2.72
2023-01-21T00:53:53.680Z,2.65
2023-01-21T00:56:21.330Z,2.28
2023-01-21T00:58:47.711Z,2.63
2023-01-21T01:01:21.300Z,2.67
2023-01-21T01:03:48.767Z,2.53
2023-01-21T01:06:19.102Z,3.00
2023-01-21T01:08:45.562Z,2.60
2023-01-21T01:11:13.245Z,2.85
2023-01-21T01:13:40.337Z,2.60
2023-01-21T01:16:16.555Z,2.65
2023-01-21T01:18:42.903Z,2.13
2023-01-21T01:21:14.707Z,2.42
2023-01-21T01:23:44.416Z,2.53
2023-01-21T01:26:16.704Z,2.67
2023-01-21T01:28:42.966Z,2.65
2023-01-21T01:31:15.077Z,2.28
2023-01-21T01:33:41.366Z,2.13
2023-01-21T01:36:22.919Z,2.83
2023-01-21T01:38:50.083Z,2.72
2023-01-21T01:41:20.332Z,2.38
2023-01-21T01:44:31.845Z,2.40
2023-01-21T01:46:59.560Z,2.55
2023-01-21T01:49:25.667Z,2.30
2023-01-21T01:52:01.070Z,2.38
2023-01-21T01:54:44.458Z,2.45
2023-01-21T01:57:14.129Z,2.55
2023-01-21T01:59:41.843Z,2.55
2023-01-21T02:02:16.727Z,2.25
2023-01-21T02:04:55.699Z,2.20
2023-01-21T02:07:24.012Z,2.65
2023-01-21T02:09:52.623Z,2.40
2023-01-21T02:12:22.509Z,2.85
2023-01-21T02:14:49.027Z,2.38
2023-01-21T02:17:46.260Z,2.47
2023-01-21T02:20:50.474Z,2.40
2023-01-21T02:23:24.467Z,2.30
2023-01-21T02:26:09.199Z,2.45
2023-01-21T02:29:17.067Z,2.33
2023-01-21T02:31:56.013Z,2.08
2023-01-21T02:34:44.861Z,2.40
2023-01-21T02:37:20.915Z,2.25
2023-01-21T02:40:24.643Z,2.28
2023-01-21T02:43:28.966Z,2.40
2023-01-21T02:46:19.391Z,2.40
2023-01-21T02:48:59.850Z,2.20
2023-01-21T02:51:29.106Z,2.30
2023-01-21T02:53:55.146Z,2.05
2023-01-21T02:56:24.943Z,2.63
2023-01-21T02:58:55.957Z,1.92
2023-01-21T03:02:13.698Z,2.13
2023-01-21T03:05:12.836Z,2.03
2023-01-21T03:07:58.789Z,2.05
2023-01-21T03:10:55.750Z,2.30
2023-01-21T03:14:01.717Z,2.33
2023-01-21T03:16:56.486Z,2.03
2023-01-21T03:20:10.279Z,1.90
2023-01-21T03:22:37.938Z,2.47
2023-01-21T03:25:09.038Z,2.10
2023-01-21T03:27:44.450Z,2.17
2023-01-21T03:30:17.370Z,2.00
2023-01-21T03:32:56.006Z,2.30
2023-01-21T03:35:55.034Z,2.17
2023-01-21T03:38:44.125Z,1.88
2023-01-21T03:41:39.934Z,1.80
2023-01-21T03:44:30.960Z,3.10
2023-01-21T03:47:02.957Z,1.95
2023-01-21T03:49:41.368Z,2.08
2023-01-21T03:52:14.094Z,1.77
2023-01-21T03:54:40.527Z,2.20
2023-01-21T03:57:06.626Z,1.92
2023-01-21T03:59:32.730Z,2.25
2023-01-21T04:01:58.778Z,1.95
2023-01-21T04:04:26.164Z,1.80
2023-01-21T04:06:53.161Z,2.05
2023-01-21T04:09:19.255Z,1.95
2023-01-21T04:11:45.355Z,2.30
2023-01-21T04:14:12.149Z,2.13
2023-01-21T04:16:40.226Z,2.40
2023-01-21T04:19:10.145Z,1.70
2023-01-21T04:21:40.107Z,1.90
2023-01-21T04:24:06.457Z,1.92
2023-01-21T04:26:33.123Z,1.67
2023-01-21T04:28:59.194Z,1.80
2023-01-21T04:31:26.174Z,1.67
2023-01-21T04:33:52.214Z,1.77
2023-01-21T04:36:18.420Z,2.00
2023-01-21T04:38:48.141Z,1.80
2023-01-21T04:41:15.115Z,1.70
2023-01-21T04:43:41.196Z,2.40
2023-01-21T04:46:10.298Z,1.95
2023-01-21T04:48:36.673Z,1.67
2023-01-21T04:51:07.208Z,1.70
2023-01-21T04:53:33.477Z,1.70
2023-01-21T04:55:59.536Z,2.10
2023-01-21T04:58:26.776Z,2.10
2023-01-21T05:01:13.865Z,2.10
2023-01-21T05:03:39.962Z,2.58
2023-01-21T05:06:06.260Z,1.80
2023-01-21T05:08:32.333Z,1.70
2023-01-21T05:11:00.227Z,1.88
2023-01-21T05:13:26.292Z,1.95
2023-01-21T05:16:01.718Z,1.73
2023-01-21T05:18:29.146Z,1.77
2023-01-21T05:20:56.330Z,2.22
2023-01-21T05:23:24.163Z,1.50
2023-01-21T05:25:52.203Z,1.75
2023-01-21T05:28:18.359Z,1.50
2023-01-21T05:30:46.372Z,1.50
2023-01-21T05:33:13.449Z,1.65
2023-01-21T05:35:41.223Z,1.63
2023-01-21T05:38:07.334Z,1.30
2023-01-21T05:40:33.416Z,1.52
2023-01-21T05:43:01.159Z,1.48
2023-01-21T05:45:28.211Z,1.60
2023-01-21T05:47:54.330Z,1.55
2023-01-21T05:50:20.386Z,1.30
2023-01-21T05:52:48.149Z,1.30
2023-01-21T05:55:14.414Z,1.40
2023-01-21T05:57:40.514Z,1.30
2023-01-21T06:00:32.131Z,1.42
2023-01-21T06:03:03.766Z,1.40
2023-01-21T06:05:29.852Z,1.52
2023-01-21T06:07:55.953Z,1.40
2023-01-21T06:10:25.209Z,1.33
2023-01-21T06:12:55.238Z,1.50
2023-01-21T06:15:21.284Z,1.23
2023-01-21T06:17:49.167Z,1.27
2023-01-21T06:20:15.612Z,1.38
2023-01-21T06:22:41.860Z,1.20
2023-01-21T06:25:11.192Z,1.10
2023-01-21T06:27:37.744Z,1.23
2023-01-21T06:30:11.678Z,1.10
2023-01-21T06:33:03.239Z,1.00
2023-01-21T06:35:29.509Z,1.20
2023-01-21T06:37:55.604Z,0.90
2023-01-21T06:40:25.680Z,0.98
2023-01-21T06:42:55.412Z,1.38
2023-01-21T06:45:25.274Z,1.20
2023-01-21T06:47:55.270Z,0.98
2023-01-21T06:50:21.629Z,1.33
2023-01-21T06:52:48.480Z,1.75
2023-01-21T06:55:18.260Z,1.02
2023-01-21T06:57:44.414Z,1.05
2023-01-21T07:00:11.937Z,1.13
2023-01-21T07:02:41.255Z,0.82
2023-01-21T07:05:07.889Z,0.90
2023-01-21T07:07:34.002Z,0.90
2023-01-21T07:10:00.088Z,0.95
2023-01-21T07:12:26.216Z,1.00
2023-01-21T07:14:56.194Z,0.80
2023-01-21T07:17:22.507Z,0.80
2023-01-21T07:19:48.542Z,1.10
2023-01-21T07:22:14.590Z,0.82
2023-01-21T07:24:44.219Z,0.90
2023-01-21T07:27:10.646Z,0.90
2023-01-21T07:29:36.733Z,0.90
2023-01-21T07:32:03.099Z,0.90
2023-01-21T07:34:29.295Z,0.82
2023-01-21T07:36:55.360Z,1.35
2023-01-21T07:39:25.320Z,0.70
2023-01-21T07:41:53.042Z,0.70
2023-01-21T07:44:19.107Z,1.08
2023-01-21T07:46:45.279Z,0.70
2023-01-21T07:49:18.262Z,0.80
2023-01-21T07:51:45.136Z,0.70
2023-01-21T07:54:11.637Z,0.88
2023-01-21T07:56:39.563Z,0.77
2023-01-21T07:59:10.791Z,0.70
2023-01-21T08:01:40.566Z,0.70
2023-01-21T08:04:06.887Z,0.70
2023-01-21T08:06:33.106Z,0.68
2023-01-21T08:09:02.380Z,0.93
2023-01-21T08:11:28.457Z,0.73
2023-01-21T08:13:54.536Z,0.80
2023-01-21T08:16:45.905Z,0.80
2023-01-21T08:19:14.066Z,0.90
2023-01-21T08:21:40.283Z,0.85
2023-01-21T08:24:06.710Z,1.23
2023-01-21T08:26:32.750Z,0.90
2023-01-21T08:29:00.312Z,0.90
2023-01-21T08:31:26.470Z,0.80
2023-01-21T08:33:52.548Z,0.90
2023-01-21T08:36:19.260Z,1.00
2023-01-21T08:38:53.596Z,0.70
2023-01-21T08:41:19.675Z,0.82
2023-01-21T08:43:49.231Z,0.93
2023-01-21T08:46:15.303Z,0.85
2023-01-21T08:48:42.259Z,0.63
2023-01-21T08:51:09.352Z,0.82
2023-01-21T08:53:35.543Z,0.90
2023-01-21T08:56:03.341Z,0.90
2023-01-21T08:58:31.975Z,0.77
2023-01-21T09:00:58.591Z,0.82
2023-01-21T09:03:24.685Z,0.80
2023-01-21T09:05:51.118Z,0.75
2023-01-21T09:08:18.209Z,0.80
2023-01-21T09:11:02.817Z,0.90
2023-01-21T09:13:38.564Z,1.05
2023-01-21T09:16:31.441Z,0.73
2023-01-21T09:19:01.129Z,0.85
2023-01-21T09:21:31.211Z,1.08
2023-01-21T09:23:57.244Z,0.90
2023-01-21T09:26:24.282Z,0.82
2023-01-21T09:29:01.295Z,0.73
2023-01-21T09:31:28.957Z,1.00
2023-01-21T09:34:03.130Z,0.90
2023-01-21T09:36:33.359Z,0.75
2023-01-21T09:38:59.801Z,0.80
2023-01-21T09:41:35.435Z,1.25
2023-01-21T09:44:25.541Z,0.80
2023-01-21T09:47:16.911Z,1.00
2023-01-21T09:50:06.413Z,0.77
2023-01-21T09:52:46.496Z,1.00
2023-01-21T09:55:21.146Z,0.82
2023-01-21T09:58:27.855Z,1.67
2023-01-21T10:00:59.817Z,0.95
2023-01-21T10:04:16.117Z,1.00
2023-01-21T10:06:50.107Z,1.05
2023-01-21T10:09:28.212Z,1.13
2023-01-21T10:12:14.090Z,1.08
2023-01-21T10:15:05.183Z,1.00
2023-01-21T10:17:58.117Z,1.10
2023-01-21T10:20:33.317Z,0.95
2023-01-21T10:23:30.870Z,1.00
2023-01-21T10:26:04.898Z,0.90
2023-01-21T10:28:31.499Z,1.00
2023-01-21T10:31:24.488Z,0.80
2023-01-21T10:33:51.033Z,1.05
2023-01-21T10:36:50.375Z,1.20
2023-01-21T10:40:02.800Z,0.98
2023-01-21T10:42:50.448Z,1.27
2023-01-21T10:45:43.087Z,1.63
2023-01-21T10:48:24.892Z,0.90
2023-01-21T10:51:32.992Z,1.10
2023-01-21T10:54:09.282Z,1.02
2023-01-21T10:56:55.105Z,1.20
2023-01-21T10:59:30.495Z,1.25
2023-01-21T11:02:28.387Z,1.10
2023-01-21T11:04:57.539Z,0.90
2023-01-21T11:07:25.389Z,1.08
2023-01-21T11:09:52.321Z,1.17
2023-01-21T11:12:25.198Z,1.23
2023-01-21T11:14:57.635Z,1.08
2023-01-21T11:17:37.654Z,1.20
2023-01-21T11:20:34.290Z,2.45
2023-01-21T11:23:04.000Z,1.23
2023-01-21T11:25:42.186Z,1.30
2023-01-21T11:28:24.373Z,1.30
2023-01-21T11:31:05.240Z,1.30
2023-01-21T11:33:31.602Z,1.17
2023-01-21T11:36:28.375Z,1.30
2023-01-21T11:39:16.143Z,1.30
2023-01-21T11:41:55.936Z,1.70
2023-01-21T11:44:23.474Z,1.20
2023-01-21T11:46:50.707Z,1.23
2023-01-21T11:49:21.301Z,1.35
2023-01-21T11:51:47.486Z,1.23
2023-01-21T11:54:16.165Z,1.30
2023-01-21T11:57:01.250Z,1.20
2023-01-21T11:59:41.146Z,0.98
2023-01-21T12:02:33.987Z,1.10
2023-01-21T12:05:20.595Z,0.93
2023-01-21T12:07:50.378Z,1.20
2023-01-21T12:10:31.185Z,1.20
2023-01-21T12:13:18.074Z,1.23
2023-01-21T12:15:46.958Z,1.00
2023-01-21T12:18:32.424Z,1.40
2023-01-21T12:21:10.032Z,1.38
2023-01-21T12:23:57.849Z,1.20
2023-01-21T12:26:33.886Z,1.30
2023-01-21T12:29:31.248Z,0.90
2023-01-21T12:32:00.968Z,1.08
2023-01-21T12:34:39.490Z,1.40
2023-01-21T12:37:20.103Z,1.30
2023-01-21T12:39:48.199Z,1.20
2023-01-21T12:42:21.986Z,1.20
2023-01-21T12:44:59.758Z,1.60
2023-01-21T12:47:45.806Z,1.20
2023-01-21T12:50:23.143Z,1.42
2023-01-21T12:53:36.938Z,1.30
2023-01-21T12:56:53.986Z,1.35
2023-01-21T12:59:31.406Z,1.15
2023-01-21T13:02:18.686Z,1.00
2023-01-21T13:04:53.706Z,1.30
2023-01-21T13:07:28.256Z,1.02
2023-01-21T13:10:21.136Z,1.40
2023-01-21T13:13:25.910Z,1.30
2023-01-21T13:15:59.964Z,1.15
2023-01-21T13:18:39.064Z,1.20
2023-01-21T13:22:00.951Z,1.20
2023-01-21T13:25:16.602Z,1.33
2023-01-21T13:28:08.591Z,1.58
2023-01-21T13:31:28.342Z,1.30
2023-01-21T13:34:03.383Z,1.30
2023-01-21T13:36:56.991Z,1.55
2023-01-21T13:39:48.302Z,1.75
2023-01-21T13:42:36.011Z,0.90
2023-01-21T13:45:13.763Z,1.40
2023-01-21T13:48:13.955Z,0.90
2023-01-21T13:51:11.512Z,1.05
2023-01-21T13:54:10.949Z,1.20
2023-01-21T13:57:01.886Z,1.35
2023-01-21T13:59:51.454Z,1.30
2023-01-21T14:02:35.335Z,1.42
2023-01-21T14:05:18.275Z,1.20
2023-01-21T14:07:45.803Z,1.30
2023-01-21T14:10:20.007Z,1.20
2023-01-21T14:13:25.937Z,1.35
2023-01-21T14:16:16.852Z,1.05
2023-01-21T14:19:08.477Z,1.38
2023-01-21T14:22:14.659Z,1.20
2023-01-21T14:25:12.986Z,1.30
2023-01-21T14:28:14.351Z,1.10
2023-01-21T14:30:58.817Z,1.50
2023-01-21T14:33:35.241Z,1.77
2023-01-21T14:36:05.050Z,1.30
2023-01-21T14:39:10.586Z,2.08
2023-01-21T14:42:11.091Z,1.38
2023-01-21T14:45:05.369Z,1.33
2023-01-21T14:47:31.377Z,1.10
2023-01-21T14:49:58.856Z,1.35
2023-01-21T14:52:52.610Z,1.42
2023-01-21T14:55:34.071Z,1.30
2023-01-21T14:58:03.815Z,1.38
2023-01-21T15:00:36.825Z,2.58
2023-01-21T15:03:15.513Z,1.90
2023-01-21T15:05:48.093Z,1.30
2023-01-21T15:08:28.994Z,1.25
2023-01-21T15:11:05.084Z,1.20
2023-01-21T15:13:35.705Z,1.38
2023-01-21T15:16:11.468Z,1.38
2023-01-21T15:19:05.150Z,1.27
2023-01-21T15:21:40.362Z,1.85
2023-01-21T15:24:35.584Z,1.25
2023-01-21T15:27:22.559Z,1.00
2023-01-21T15:29:57.836Z,1.65
2023-01-21T15:32:29.905Z,1.27
2023-01-21T15:35:24.640Z,1.30
2023-01-21T15:38:14.243Z,1.30
2023-01-21T15:40:42.467Z,1.30
2023-01-21T15:43:40.075Z,1.10
2023-01-21T15:46:35.256Z,1.40
2023-01-21T15:49:27.039Z,1.15
2023-01-21T15:52:14.951Z,1.38
2023-01-21T15:55:19.396Z,1.15
2023-01-21T15:58:18.187Z,1.42
2023-01-21T16:01:20.868Z,1.17
2023-01-21T16:04:02.037Z,1.30
2023-01-21T16:07:06.881Z,1.33
2023-01-21T16:10:02.318Z,1.30
2023-01-21T16:13:11.998Z,1.42
2023-01-21T16:16:20.081Z,0.90
2023-01-21T16:19:02.594Z,1.13
2023-01-21T16:21:55.921Z,1.20
2023-01-21T16:24:28.451Z,0.80
2023-01-21T16:27:16.884Z,1.35
2023-01-21T16:29:42.951Z,1.15
2023-01-21T16:32:19.072Z,1.20
2023-01-21T16:34:46.356Z,0.90
2023-01-21T16:37:20.438Z,0.88
2023-01-21T16:40:07.815Z,1.05
2023-01-21T16:42:36.146Z,1.15
2023-01-21T16:45:32.022Z,1.00
2023-01-21T16:47:58.889Z,0.90
2023-01-21T16:50:28.882Z,1.30
2023-01-21T16:53:06.221Z,1.08
2023-01-21T16:56:00.141Z,0.73
2023-01-21T16:58:46.163Z,1.00
2023-01-21T17:01:23.053Z,0.85
2023-01-21T17:03:53.675Z,0.80
2023-01-21T17:06:29.506Z,1.00
2023-01-21T17:09:00.722Z,1.05
2023-01-21T17:11:28.011Z,0.85
2023-01-21T17:13:54.356Z,0.70
2023-01-21T17:16:29.327Z,0.70
2023-01-21T17:19:34.815Z,0.70
2023-01-21T17:22:17.310Z,0.85
2023-01-21T17:25:19.890Z,0.70
2023-01-21T17:27:46.696Z,0.70
2023-01-21T17:30:31.505Z,0.75
2023-01-21T17:33:03.763Z,0.60
2023-01-21T17:35:33.796Z,0.75
2023-01-21T17:38:28.658Z,0.60
2023-01-21T17:41:03.043Z,0.70
2023-01-21T17:43:32.885Z,0.85
2023-01-21T17:46:03.015Z,1.60
2023-01-21T17:48:32.458Z,0.70
2023-01-21T17:51:18.757Z,0.70
2023-01-21T17:54:03.013Z,0.50
2023-01-21T17:56:54.243Z,0.45
2023-01-21T17:59:38.822Z,0.75
2023-01-21T18:02:16.006Z,0.50
2023-01-21T18:04:42.436Z,0.50
2023-01-21T18:07:31.285Z,0.32
2023-01-21T18:10:03.796Z,0.65
2023-01-21T18:12:29.857Z,1.08
2023-01-21T18:14:59.627Z,0.60
2023-01-21T18:17:27.836Z,0.60
2023-01-21T18:19:57.747Z,0.60
2023-01-21T18:22:31.406Z,0.60
2023-01-21T18:24:57.602Z,0.60
2023-01-21T18:27:26.214Z,0.57
2023-01-21T18:29:56.439Z,0.70
2023-01-21T18:32:25.532Z,0.60
2023-01-21T18:34:52.550Z,0.80
2023-01-21T18:37:19.653Z,0.70
2023-01-21T18:39:46.475Z,0.70
2023-01-21T18:42:15.390Z,0.50
2023-01-21T18:44:43.088Z,0.70
2023-01-21T18:47:16.852Z,0.77
2023-01-21T18:49:43.616Z,0.40
2023-01-21T18:52:13.329Z,0.60
2023-01-21T18:54:40.857Z,0.73
2023-01-21T18:57:22.355Z,0.60
2023-01-21T18:59:48.532Z,0.50
2023-01-21T19:02:19.782Z,0.75
2023-01-21T19:04:46.600Z,0.63
2023-01-21T19:07:19.053Z,0.93
2023-01-21T19:09:45.733Z,0.60
2023-01-21T19:12:20.372Z,0.70
2023-01-21T19:14:48.506Z,1.83
2023-01-21T19:17:21.580Z,0.85
2023-01-21T19:19:47.783Z,0.60
2023-01-21T19:22:15.019Z,0.93
2023-01-21T19:24:41.581Z,1.30
2023-01-21T19:27:18.929Z,0.68
2023-01-21T19:29:45.010Z,0.93
2023-01-21T19:32:14.990Z,0.80
2023-01-21T19:34:41.827Z,0.93
2023-01-21T19:37:16.432Z,0.80
2023-01-21T19:39:42.863Z,0.77
2023-01-21T19:42:15.887Z,0.70
2023-01-21T19:44:42.606Z,0.70
2023-01-21T19:47:34.157Z,0.70
2023-01-21T19:50:00.211Z,1.00
2023-01-21T19:52:26.311Z,1.02
2023-01-21T19:54:55.205Z,0.82
2023-01-21T19:57:24.968Z,1.33
2023-01-21T19:59:54.689Z,0.82
2023-01-21T20:02:22.655Z,0.80
2023-01-21T20:04:48.793Z,1.00
2023-01-21T20:07:16.331Z,1.15
2023-01-21T20:09:42.454Z,0.85
2023-01-21T20:12:13.761Z,0.95
2023-01-21T20:14:43.649Z,0.93
2023-01-21T20:17:12.598Z,0.85
2023-01-21T20:19:40.187Z,0.80
2023-01-21T20:22:31.609Z,0.90
2023-01-21T20:24:57.652Z,1.08
2023-01-21T20:27:23.756Z,0.70
2023-01-21T20:30:02.727Z,1.25
2023-01-21T20:32:36.574Z,1.08
2023-01-21T20:35:02.803Z,1.10
2023-01-21T20:37:29.610Z,0.93
2023-01-21T20:39:56.649Z,0.77
2023-01-21T20:42:22.738Z,0.80
2023-01-21T20:45:15.399Z,1.00
2023-01-21T20:47:50.113Z,1.20
2023-01-21T20:50:27.053Z,0.95
2023-01-21T20:52:53.607Z,1.42
2023-01-21T20:55:21.373Z,1.08
2023-01-21T20:57:49.687Z,0.90
2023-01-21T21:00:36.033Z,0.88
2023-01-21T21:03:02.387Z,1.10
2023-01-21T21:05:28.748Z,1.33
2023-01-21T21:07:55.139Z,1.45
2023-01-21T21:10:22.735Z,0.98
2023-01-21T21:12:49.533Z,1.23
2023-01-21T21:15:18.593Z,1.20
2023-01-21T21:17:51.255Z,1.13
2023-01-21T21:20:23.438Z,1.10
2023-01-21T21:22:52.735Z,1.10
2023-01-21T21:25:21.223Z,1.40
2023-01-21T21:27:47.623Z,1.10
2023-01-21T21:30:25.239Z,1.00
2023-01-21T21:32:51.489Z,1.33
2023-01-21T21:35:27.497Z,0.88
2023-01-21T21:37:55.785Z,1.10
2023-01-21T21:40:28.599Z,1.25
2023-01-21T21:43:15.984Z,1.23
2023-01-21T21:46:05.133Z,1.20
2023-01-21T21:48:38.711Z,1.75
2023-01-21T21:51:16.987Z,1.13
2023-01-21T21:53:43.891Z,1.17
2023-01-21T21:56:14.779Z,1.55
2023-01-21T21:58:44.810Z,1.20
2023-01-21T22:01:20.566Z,1.17
2023-01-21T22:03:48.106Z,1.23
2023-01-21T22:06:16.366Z,0.90
2023-01-21T22:08:42.829Z,1.27
2023-01-21T22:11:25.675Z,1.38
2023-01-21T22:13:53.980Z,1.30
2023-01-21T22:16:32.266Z,1.00
2023-01-21T22:19:00.002Z,1.50
2023-01-21T22:21:28.927Z,1.10
2023-01-21T22:23:55.289Z,1.10
2023-01-21T22:26:26.150Z,1.15
2023-01-21T22:28:52.785Z,1.25
2023-01-21T22:31:30.583Z,1.40
2023-01-21T22:33:59.876Z,1.27
2023-01-21T22:36:30.433Z,1.20
2023-01-21T22:38:59.816Z,0.98
2023-01-21T22:41:30.274Z,1.02
2023-01-21T22:43:56.447Z,1.30
2023-01-21T22:46:33.019Z,1.20
2023-01-21T22:49:00.678Z,1.00
2023-01-21T22:51:31.002Z,1.20
2023-01-21T22:54:01.430Z,1.10
2023-01-21T22:56:49.722Z,1.10
2023-01-21T22:59:13.867Z,1.40
2023-01-21T23:01:40.314Z,1.10
2023-01-21T23:04:06.464Z,1.20
2023-01-21T23:06:32.562Z,1.30
2023-01-21T23:09:01.671Z,1.40
2023-01-21T23:11:29.050Z,1.40
2023-01-21T23:13:55.179Z,0.93
2023-01-21T23:16:21.422Z,0.95
2023-01-21T23:18:50.753Z,1.17
2023-01-21T23:21:21.084Z,1.40
2023-01-21T23:23:48.012Z,0.90
2023-01-21T23:26:14.590Z,1.30
2023-01-21T23:28:43.877Z,1.08
2023-01-21T23:31:16.663Z,1.20
2023-01-21T23:33:54.985Z,1.00
2023-01-21T23:36:21.490Z,0.98
2023-01-21T23:38:47.785Z,1.08
2023-01-21T23:41:37.162Z,1.10
2023-01-21T23:44:03.548Z,1.13
2023-01-21T23:46:29.731Z,0.80
2023-01-21T23:48:55.941Z,1.13
2023-01-21T23:51:22.707Z,1.40
2023-01-21T23:53:49.143Z,1.10
2023-01-21T23:56:21.673Z,0.93
2023-01-21T23:58:48.541Z,0.93
